Time;durP1;ratioP1;P1;durP2;ratioP2;P2;SDS_P1;SDS_P2;PMS_P1;PMS_P2;Temp;Humidity;BMP_temperature;BMP_pressure;BME280_temperature;BME280_humidity;BME280_pressure;Samples;Min_cycle;Max_cycle;Signal;HPM_P1;HPM_P2
2023/08/27 05:01:59;;;;;;;27.83;16.70;;;;;;;;;;5258196;23;20544;-75
2023/08/27 05:04:29;;;;;;;24.10;15.37;;;;;;;;;;4993296;28;20521;-75
2023/08/27 05:06:55;;;;;;;32.73;15.17;;;;;;;;;;4994024;28;20493;-75
2023/08/27 05:09:21;;;;;;;34.20;19.83;;;;;;;;;;5009682;28;20427;-76
2023/08/27 05:11:47;;;;;;;31.20;18.53;;;;;;;;;;4981864;28;20436;-76
2023/08/27 05:14:12;;;;;;;22.23;14.20;;;;;;;;;;4957164;28;20428;-76
2023/08/27 05:16:38;;;;;;;25.47;14.67;;;;;;;;;;4953453;29;20417;-75
2023/08/27 05:19:04;;;;;;;30.20;19.20;;;;;;;;;;4953213;29;20433;-75
2023/08/27 05:21:30;;;;;;;28.00;15.07;;;;;;;;;;4953258;29;20492;-76
2023/08/27 05:23:56;;;;;;;28.70;18.53;;;;;;;;;;4968663;28;20427;-74
2023/08/27 05:26:22;;;;;;;26.67;17.93;;;;;;;;;;4973904;28;20455;-75
2023/08/27 05:28:48;;;;;;;26.53;16.40;;;;;;;;;;4979520;28;20486;-75
2023/08/27 05:31:14;;;;;;;34.70;20.10;;;;;;;;;;4987106;28;20543;-75
2023/08/27 05:33:40;;;;;;;28.30;15.97;;;;;;;;;;4989312;28;20512;-76
2023/08/27 05:36:06;;;;;;;22.83;14.93;;;;;;;;;;4982666;28;20408;-75
2023/08/27 05:38:32;;;;;;;23.53;13.20;;;;;;;;;;4982001;28;20440;-75
2023/08/27 05:40:58;;;;;;;27.43;16.50;;;;;;;;;;4966541;29;20447;-75
2023/08/27 05:43:25;;;;;;;33.03;19.43;;;;;;;;;;4974414;28;20793;-75
2023/08/27 05:45:51;;;;;;;20.60;13.73;;;;;;;;;;4983325;28;20467;-75
2023/08/27 05:48:17;;;;;;;25.07;14.10;;;;;;;;;;4982333;28;20408;-75
2023/08/27 05:50:44;;;;;;;25.47;14.60;;;;;;;;;;4979472;28;20428;-75
2023/08/27 05:53:11;;;;;;;25.20;14.00;;;;;;;;;;4961121;28;20989;-75
2023/08/27 05:55:37;;;;;;;25.93;14.60;;;;;;;;;;4960454;28;20439;-75
2023/08/27 05:58:03;;;;;;;25.40;14.10;;;;;;;;;;4959287;29;20436;-75
2023/08/27 06:00:29;;;;;;;18.57;11.80;;;;;;;;;;4960199;28;20484;-75
2023/08/27 06:02:55;;;;;;;20.27;12.03;;;;;;;;;;4966071;28;20448;-75
2023/08/27 06:05:21;;;;;;;16.10;11.03;;;;;;;;;;4978339;28;20467;-75
2023/08/27 06:07:47;;;;;;;18.57;9.57;;;;;;;;;;4979590;28;20443;-75
2023/08/27 06:10:13;;;;;;;14.80;9.30;;;;;;;;;;4979129;28;20416;-77
2023/08/27 06:12:39;;;;;;;15.47;9.00;;;;;;;;;;4978186;28;20428;-76
2023/08/27 06:15:05;;;;;;;10.67;7.60;;;;;;;;;;4978293;28;20411;-74
2023/08/27 06:17:31;;;;;;;9.07;6.83;;;;;;;;;;4977965;28;20494;-74
2023/08/27 06:19:57;;;;;;;10.97;6.77;;;;;;;;;;4977435;28;20450;-74
2023/08/27 06:22:24;;;;;;;8.27;6.30;;;;;;;;;;4975085;28;20518;-77
2023/08/27 06:24:50;;;;;;;12.13;6.73;;;;;;;;;;4956673;29;20499;-74
2023/08/27 06:27:16;;;;;;;9.77;6.43;;;;;;;;;;4958100;29;20555;-74
2023/08/27 06:29:45;;;;;;;22.07;8.57;;;;;;;;;;4958256;29;20408;-76
2023/08/27 06:32:13;;;;;;;16.93;6.60;;;;;;;;;;4958263;29;20443;-76
2023/08/27 06:34:39;;;;;;;13.73;7.67;;;;;;;;;;4957852;28;20413;-74
2023/08/27 06:37:05;;;;;;;11.00;7.50;;;;;;;;;;4957808;29;20981;-73
2023/08/27 06:39:31;;;;;;;12.87;9.40;;;;;;;;;;4956086;28;20448;-74
2023/08/27 06:41:57;;;;;;;14.10;9.43;;;;;;;;;;4957835;29;20848;-74
2023/08/27 06:44:23;;;;;;;16.43;10.33;;;;;;;;;;4973107;28;20431;-74
2023/08/27 06:46:49;;;;;;;12.73;8.40;;;;;;;;;;4977083;28;20510;-74
2023/08/27 06:49:15;;;;;;;15.33;6.60;;;;;;;;;;4977270;28;20451;-75
2023/08/27 06:51:41;;;;;;;9.30;5.60;;;;;;;;;;4975777;28;20443;-75
2023/08/27 06:54:08;;;;;;;8.40;6.33;;;;;;;;;;4975086;28;20425;-75
2023/08/27 06:56:34;;;;;;;10.30;6.33;;;;;;;;;;4976327;28;20436;-75
2023/08/27 06:59:00;;;;;;;8.63;6.30;;;;;;;;;;4957189;29;20425;-74
2023/08/27 07:01:26;;;;;;;10.60;6.63;;;;;;;;;;4957139;29;20468;-75
2023/08/27 07:03:52;;;;;;;8.53;5.73;;;;;;;;;;4968072;28;20943;-75
2023/08/27 07:06:19;;;;;;;12.63;6.40;;;;;;;;;;4976315;28;20459;-74
2023/08/27 07:08:45;;;;;;;10.03;5.90;;;;;;;;;;4975990;28;20415;-74
2023/08/27 07:11:11;;;;;;;6.63;5.00;;;;;;;;;;4976410;28;20428;-74
2023/08/27 07:13:37;;;;;;;10.13;4.53;;;;;;;;;;4975948;28;20470;-74
2023/08/27 07:16:03;;;;;;;6.17;4.67;;;;;;;;;;4974970;28;20432;-74
2023/08/27 07:18:29;;;;;;;10.00;4.80;;;;;;;;;;4976270;28;20416;-75
2023/08/27 07:20:55;;;;;;;5.97;3.63;;;;;;;;;;4973349;28;20443;-74
2023/08/27 07:23:21;;;;;;;7.77;4.63;;;;;;;;;;4974998;28;20432;-74
2023/08/27 07:25:47;;;;;;;9.03;4.67;;;;;;;;;;4975947;28;20982;-75
2023/08/27 07:28:13;;;;;;;6.83;3.90;;;;;;;;;;4974650;28;20478;-75
2023/08/27 07:30:39;;;;;;;8.13;4.20;;;;;;;;;;4976341;28;20442;-75
2023/08/27 07:33:08;;;;;;;9.77;4.63;;;;;;;;;;4975493;28;20428;-75
2023/08/27 07:35:34;;;;;;;6.97;4.40;;;;;;;;;;4975673;28;20420;-76
2023/08/27 07:38:00;;;;;;;8.90;4.63;;;;;;;;;;4975412;28;20443;-76
2023/08/27 07:40:26;;;;;;;4.10;3.43;;;;;;;;;;4975415;28;20419;-76
2023/08/27 07:42:52;;;;;;;5.77;3.90;;;;;;;;;;4962409;28;20463;-76
2023/08/27 07:45:18;;;;;;;5.17;3.60;;;;;;;;;;4956196;29;20460;-75
2023/08/27 07:47:44;;;;;;;10.20;4.70;;;;;;;;;;4957074;29;20416;-76
2023/08/27 07:50:10;;;;;;;6.83;3.47;;;;;;;;;;4955099;28;20409;-76
2023/08/27 07:52:36;;;;;;;6.63;3.80;;;;;;;;;;4955850;28;20456;-76
2023/08/27 07:55:03;;;;;;;6.13;3.53;;;;;;;;;;4956523;28;20425;-75
2023/08/27 07:57:29;;;;;;;4.53;3.57;;;;;;;;;;4955874;28;20440;-74
2023/08/27 07:59:55;;;;;;;4.20;3.13;;;;;;;;;;4955420;29;20409;-76
2023/08/27 08:02:21;;;;;;;4.20;2.70;;;;;;;;;;4964222;28;20463;-75
2023/08/27 08:04:47;;;;;;;4.87;3.53;;;;;;;;;;4965790;28;20981;-75
2023/08/27 08:07:12;;;;;;;5.90;3.67;;;;;;;;;;4955840;29;20977;-76
2023/08/27 08:09:39;;;;;;;4.77;3.23;;;;;;;;;;4955516;29;20413;-75
2023/08/27 08:12:05;;;;;;;5.80;3.60;;;;;;;;;;4955440;29;20515;-75
2023/08/27 08:14:31;;;;;;;5.43;3.57;;;;;;;;;;4960189;28;20498;-74
2023/08/27 08:16:57;;;;;;;5.70;3.60;;;;;;;;;;4989242;28;20460;-76
2023/08/27 08:19:23;;;;;;;4.70;3.17;;;;;;;;;;4974649;28;20463;-74
2023/08/27 08:21:49;;;;;;;5.97;3.97;;;;;;;;;;4974771;28;20854;-75
2023/08/27 08:24:15;;;;;;;9.70;3.60;;;;;;;;;;4975078;28;20426;-75
2023/08/27 08:26:41;;;;;;;4.53;3.40;;;;;;;;;;4966759;28;20468;-75
2023/08/27 08:29:07;;;;;;;3.63;3.10;;;;;;;;;;4955136;29;20492;-76
2023/08/27 08:31:34;;;;;;;3.70;2.97;;;;;;;;;;4955153;29;20433;-76
2023/08/27 08:34:00;;;;;;;6.20;2.43;;;;;;;;;;4956051;28;20778;-76
2023/08/27 08:36:26;;;;;;;4.63;3.00;;;;;;;;;;4955830;28;20429;-76
2023/08/27 08:38:52;;;;;;;3.47;2.80;;;;;;;;;;4954906;28;20420;-75
2023/08/27 08:41:20;;;;;;;5.60;3.57;;;;;;;;;;4955475;29;20440;-76
2023/08/27 08:43:52;;;;;;;6.43;2.80;;;;;;;;;;4956131;29;20413;-75
2023/08/27 08:46:20;;;;;;;3.70;2.90;;;;;;;;;;4958156;28;20491;-73
2023/08/27 08:48:49;;;;;;;14.23;3.63;;;;;;;;;;4975510;28;20451;-74
2023/08/27 08:51:19;;;;;;;6.77;3.30;;;;;;;;;;4964966;28;20440;-75
2023/08/27 08:53:50;;;;;;;5.10;2.87;;;;;;;;;;4957145;28;20902;-75
2023/08/27 08:56:24;;;;;;;3.87;3.10;;;;;;;;;;4985667;28;20428;-72
2023/08/27 08:58:55;;;;;;;4.50;2.80;;;;;;;;;;4973361;28;20435;-72
2023/08/27 09:01:21;;;;;;;5.33;2.80;;;;;;;;;;4972518;28;20470;-73
2023/08/27 09:03:48;;;;;;;4.00;2.80;;;;;;;;;;4973756;28;20408;-74
2023/08/27 09:06:18;;;;;;;5.47;3.40;;;;;;;;;;4972267;28;20494;-75
2023/08/27 09:08:44;;;;;;;4.70;2.50;;;;;;;;;;4973159;28;20443;-74
2023/08/27 09:11:12;;;;;;;5.73;2.67;;;;;;;;;;4968475;28;20434;-74
2023/08/27 09:13:38;;;;;;;3.57;2.67;;;;;;;;;;4954655;29;20418;-73
2023/08/27 09:16:06;;;;;;;4.93;3.10;;;;;;;;;;4970149;28;20941;-73
2023/08/27 09:18:32;;;;;;;6.53;3.30;;;;;;;;;;4972426;28;20430;-74
2023/08/27 09:20:59;;;;;;;6.00;2.60;;;;;;;;;;4972515;28;20443;-73
2023/08/27 09:23:26;;;;;;;4.60;2.77;;;;;;;;;;4973757;28;20422;-74
2023/08/27 09:26:02;;;;;;;5.80;3.20;;;;;;;;;;4973420;28;20834;-73
2023/08/27 09:28:28;;;;;;;3.33;2.60;;;;;;;;;;4973291;28;20478;-74
2023/08/27 09:30:54;;;;;;;5.17;2.80;;;;;;;;;;4973386;28;20723;-73
2023/08/27 09:33:20;;;;;;;4.13;2.40;;;;;;;;;;4973412;28;20412;-74
2023/08/27 09:35:48;;;;;;;5.10;2.80;;;;;;;;;;4973244;28;20945;-74
2023/08/27 09:38:15;;;;;;;3.20;2.80;;;;;;;;;;4971027;28;20432;-74
2023/08/27 09:40:41;;;;;;;4.67;2.90;;;;;;;;;;4973364;28;20944;-74
2023/08/27 09:43:08;;;;;;;3.60;2.40;;;;;;;;;;4972373;28;20420;-74
2023/08/27 09:45:35;;;;;;;3.20;2.07;;;;;;;;;;4954025;29;20465;-74
2023/08/27 09:48:02;;;;;;;3.57;2.77;;;;;;;;;;4969782;28;20554;-74
2023/08/27 09:50:29;;;;;;;4.40;3.03;;;;;;;;;;4973499;28;20408;-74
2023/08/27 09:53:28;;;;;;;6.03;2.60;;;;;;;;;;4973588;28;20423;-75
2023/08/27 09:55:54;;;;;;;4.07;2.53;;;;;;;;;;4951372;28;20439;-73
2023/08/27 09:58:26;;;;;;;9.87;2.90;;;;;;;;;;4965740;28;20432;-73
2023/08/27 10:00:57;;;;;;;5.03;2.67;;;;;;;;;;4972625;28;20459;-74
2023/08/27 10:03:23;;;;;;;4.33;3.10;;;;;;;;;;4973112;28;20419;-73
2023/08/27 10:05:50;;;;;;;3.97;3.10;;;;;;;;;;4973403;28;20817;-73
2023/08/27 10:08:16;;;;;;;5.17;2.70;;;;;;;;;;4987819;28;20427;-76
2023/08/27 10:10:42;;;;;;;3.83;2.70;;;;;;;;;;4973914;28;20514;-77
2023/08/27 10:13:09;;;;;;;4.70;2.40;;;;;;;;;;4974340;28;20822;-78
2023/08/27 10:15:36;;;;;;;5.40;2.80;;;;;;;;;;4978270;28;20507;-78
2023/08/27 10:18:04;;;;;;;4.03;2.33;;;;;;;;;;4977123;28;20420;-78
2023/08/27 10:20:31;;;;;;;5.20;2.77;;;;;;;;;;4978306;28;20419;-77
2023/08/27 10:22:57;;;;;;;6.93;3.27;;;;;;;;;;4982314;28;20414;-78
2023/08/27 10:25:24;;;;;;;4.47;2.53;;;;;;;;;;4980376;28;20515;-77
2023/08/27 10:27:51;;;;;;;3.20;2.20;;;;;;;;;;4973166;28;20474;-78
2023/08/27 10:30:21;;;;;;;4.27;2.27;;;;;;;;;;4978353;28;20925;-78
2023/08/27 10:32:47;;;;;;;3.20;2.23;;;;;;;;;;4979496;28;20407;-77
2023/08/27 10:35:14;;;;;;;2.50;2.40;;;;;;;;;;4980736;28;20882;-77
2023/08/27 10:37:43;;;;;;;2.90;2.37;;;;;;;;;;4979296;28;20429;-79
2023/08/27 10:40:11;;;;;;;5.60;2.77;;;;;;;;;;5003150;28;20430;-78
2023/08/27 10:42:37;;;;;;;4.70;3.57;;;;;;;;;;4999730;28;20407;-78
2023/08/27 10:45:20;;;;;;;4.53;3.33;;;;;;;;;;4989833;28;20412;-78
2023/08/27 10:48:05;;;;;;;5.83;3.13;;;;;;;;;;4981903;28;20798;-78
2023/08/27 10:50:46;;;;;;;7.10;3.67;;;;;;;;;;4981572;28;20482;-78
2023/08/27 10:53:13;;;;;;;4.00;2.93;;;;;;;;;;4976303;28;20413;-78
2023/08/27 10:55:43;;;;;;;6.63;4.00;;;;;;;;;;4960489;28;20902;-76
2023/08/27 10:58:15;;;;;;;5.72;3.30;;;;;;;;;;4968458;28;20428;-76
2023/08/27 11:01:01;;;;;;;7.13;3.27;;;;;;;;;;4976966;28;20212;-76
2023/08/27 11:03:27;;;;;;;7.50;3.90;;;;;;;;;;4977955;28;20407;-76
2023/08/27 11:06:15;;;;;;;3.33;3.20;;;;;;;;;;4994403;28;20460;-78
2023/08/27 11:08:41;;;;;;;6.67;3.20;;;;;;;;;;4977156;28;20775;-68
2023/08/27 11:11:11;;;;;;;5.37;3.67;;;;;;;;;;4976438;28;20511;-69
2023/08/27 11:13:37;;;;;;;4.90;3.10;;;;;;;;;;4981979;23;20504;-69
2023/08/27 11:16:11;;;;;;;4.60;3.33;;;;;;;;;;4935732;29;20424;-69
2023/08/27 11:18:53;;;;;;;6.50;3.27;;;;;;;;;;4936450;29;20421;-69
2023/08/27 11:21:25;;;;;;;4.90;3.30;;;;;;;;;;4936656;29;20921;-69
2023/08/27 11:24:09;;;;;;;5.50;3.60;;;;;;;;;;4936412;29;20461;-69
2023/08/27 11:26:35;;;;;;;7.53;3.57;;;;;;;;;;4929809;29;20473;-68
2023/08/27 11:29:03;;;;;;;7.37;3.30;;;;;;;;;;4916861;29;20896;-68
2023/08/27 11:31:30;;;;;;;7.03;3.67;;;;;;;;;;4918713;29;20513;-68
2023/08/27 11:33:56;;;;;;;6.13;3.57;;;;;;;;;;4936223;29;20465;-69
2023/08/27 11:36:22;;;;;;;4.30;3.33;;;;;;;;;;4933353;29;20439;-68
2023/08/27 11:38:48;;;;;;;6.60;3.57;;;;;;;;;;4916769;29;21033;-68
2023/08/27 11:41:14;;;;;;;8.33;3.37;;;;;;;;;;4916430;29;20502;-69
2023/08/27 11:43:40;;;;;;;4.73;3.43;;;;;;;;;;4916955;29;20438;-68
2023/08/27 11:46:20;;;;;;;6.80;3.70;;;;;;;;;;4916627;29;20505;-68
2023/08/27 11:48:50;;;;;;;5.73;2.90;;;;;;;;;;4917208;29;20518;-69
2023/08/27 11:51:16;;;;;;;5.30;2.97;;;;;;;;;;4917068;29;20402;-69
2023/08/27 11:53:45;;;;;;;9.20;3.57;;;;;;;;;;4917102;29;20462;-68
2023/08/27 11:56:17;;;;;;;5.33;3.27;;;;;;;;;;4916657;29;20774;-68
2023/08/27 11:58:44;;;;;;;4.80;3.20;;;;;;;;;;4914908;29;20494;-69
2023/08/27 12:01:14;;;;;;;5.70;3.00;;;;;;;;;;4917050;29;20425;-69
2023/08/27 12:03:41;;;;;;;7.80;2.90;;;;;;;;;;4916812;29;20438;-70
2023/08/27 12:06:14;;;;;;;8.53;3.23;;;;;;;;;;4910732;29;20481;-70
2023/08/27 12:08:40;;;;;;;6.97;3.47;;;;;;;;;;4916972;29;20742;-69
2023/08/27 12:11:06;;;;;;;6.90;3.70;;;;;;;;;;4916357;29;20486;-69
2023/08/27 12:13:32;;;;;;;3.90;3.00;;;;;;;;;;4916390;29;20492;-69
2023/08/27 12:16:00;;;;;;;6.80;3.10;;;;;;;;;;4916056;29;20454;-70
2023/08/27 12:18:32;;;;;;;4.67;3.30;;;;;;;;;;4915828;29;20976;-70
2023/08/27 12:21:03;;;;;;;4.17;3.07;;;;;;;;;;4915989;29;20813;-70
2023/08/27 12:23:29;;;;;;;5.60;3.00;;;;;;;;;;4916122;29;20940;-70
2023/08/27 12:25:58;;;;;;;7.20;2.97;;;;;;;;;;4915759;29;20500;-70
2023/08/27 12:28:24;;;;;;;5.37;3.30;;;;;;;;;;4915324;29;20423;-69
2023/08/27 12:30:54;;;;;;;7.83;3.40;;;;;;;;;;4916269;29;20411;-69
2023/08/27 12:33:21;;;;;;;15.87;3.50;;;;;;;;;;4916479;29;20751;-69
2023/08/27 12:35:47;;;;;;;5.00;2.93;;;;;;;;;;4916225;29;20437;-70
2023/08/27 12:38:14;;;;;;;4.00;2.70;;;;;;;;;;4915939;29;20425;-69
2023/08/27 12:40:40;;;;;;;8.97;3.60;;;;;;;;;;4915781;29;20430;-70
2023/08/27 12:43:06;;;;;;;6.13;3.60;;;;;;;;;;4911887;29;20500;-69
2023/08/27 12:45:32;;;;;;;9.47;4.17;;;;;;;;;;4922446;29;20475;-68
2023/08/27 12:48:03;;;;;;;8.20;3.67;;;;;;;;;;4916110;29;20456;-69
2023/08/27 12:50:29;;;;;;;10.70;4.00;;;;;;;;;;4929146;29;20437;-69
2023/08/27 12:52:55;;;;;;;11.27;4.60;;;;;;;;;;4934424;29;20414;-69
2023/08/27 12:55:21;;;;;;;5.33;3.00;;;;;;;;;;4934735;29;20517;-69
2023/08/27 12:57:47;;;;;;;6.10;3.43;;;;;;;;;;4934555;29;20410;-69
2023/08/27 13:00:13;;;;;;;5.03;3.50;;;;;;;;;;4915782;29;20875;-69
2023/08/27 13:02:39;;;;;;;5.63;3.13;;;;;;;;;;4912622;29;20419;-71
2023/08/27 13:05:05;;;;;;;8.40;3.10;;;;;;;;;;4914581;29;20591;-68
2023/08/27 13:07:31;;;;;;;10.00;3.87;;;;;;;;;;4915493;29;20462;-68
2023/08/27 13:09:57;;;;;;;4.63;2.90;;;;;;;;;;4914074;29;20437;-68
2023/08/27 13:12:23;;;;;;;5.57;3.60;;;;;;;;;;4914335;29;20501;-67
2023/08/27 13:14:49;;;;;;;8.00;3.53;;;;;;;;;;4913900;29;20481;-66
2023/08/27 13:17:15;;;;;;;3.13;2.40;;;;;;;;;;4915221;29;20960;-68
2023/08/27 13:19:41;;;;;;;5.33;2.83;;;;;;;;;;4914711;29;20999;-69
2023/08/27 13:22:07;;;;;;;6.30;3.00;;;;;;;;;;4915009;29;20893;-72
2023/08/27 13:24:33;;;;;;;4.57;2.93;;;;;;;;;;4914920;29;20928;-70
2023/08/27 13:26:59;;;;;;;7.50;3.20;;;;;;;;;;4913889;29;21032;-70
2023/08/27 13:29:25;;;;;;;5.50;2.90;;;;;;;;;;4915709;29;20450;-70
2023/08/27 13:31:55;;;;;;;6.10;3.47;;;;;;;;;;4906653;29;20517;-71
2023/08/27 13:34:21;;;;;;;4.70;2.67;;;;;;;;;;4923997;29;20451;-77
2023/08/27 13:36:47;;;;;;;4.90;2.80;;;;;;;;;;4922415;29;20521;-78
2023/08/27 13:39:13;;;;;;;3.93;2.57;;;;;;;;;;4915089;29;20438;-78
2023/08/27 13:41:39;;;;;;;5.30;2.83;;;;;;;;;;4915305;29;20435;-78
2023/08/27 13:44:05;;;;;;;3.03;2.60;;;;;;;;;;4915400;29;20446;-78
2023/08/27 13:46:31;;;;;;;3.90;2.93;;;;;;;;;;4915700;29;20469;-78
2023/08/27 13:48:57;;;;;;;6.07;3.30;;;;;;;;;;4916470;29;20430;-78
2023/08/27 13:51:23;;;;;;;3.63;2.40;;;;;;;;;;4919378;29;20414;-78
2023/08/27 13:53:49;;;;;;;5.73;3.10;;;;;;;;;;4918983;29;20533;-78
2023/08/27 13:56:15;;;;;;;5.20;2.90;;;;;;;;;;4919204;29;20481;-78
2023/08/27 13:58:41;;;;;;;3.40;2.87;;;;;;;;;;4918426;29;20438;-78
2023/08/27 14:01:07;;;;;;;3.37;2.37;;;;;;;;;;4918685;29;20501;-78
2023/08/27 14:03:33;;;;;;;4.30;3.03;;;;;;;;;;4918273;29;20450;-78
2023/08/27 14:05:59;;;;;;;5.97;3.20;;;;;;;;;;4918648;29;20474;-78
2023/08/27 14:08:29;;;;;;;6.03;2.90;;;;;;;;;;4917067;29;20441;-78
2023/08/27 14:10:55;;;;;;;5.83;3.27;;;;;;;;;;4918758;29;20414;-78
2023/08/27 14:13:22;;;;;;;4.17;3.40;;;;;;;;;;4918647;29;20525;-78
2023/08/27 14:15:48;;;;;;;6.37;3.37;;;;;;;;;;4918861;29;20406;-78
2023/08/27 14:18:14;;;;;;;5.10;3.40;;;;;;;;;;4917172;29;20422;-78
2023/08/27 14:20:40;;;;;;;5.70;2.70;;;;;;;;;;4918543;29;20421;-78
2023/08/27 14:23:06;;;;;;;4.90;2.53;;;;;;;;;;4918793;29;20497;-78
2023/08/27 14:25:32;;;;;;;9.03;2.60;;;;;;;;;;4918524;29;20418;-79
2023/08/27 14:27:58;;;;;;;9.43;3.33;;;;;;;;;;4918279;29;20414;-79
2023/08/27 14:30:24;;;;;;;6.83;3.03;;;;;;;;;;4918382;29;20430;-79
2023/08/27 14:32:50;;;;;;;4.30;2.80;;;;;;;;;;4918488;29;20517;-77
2023/08/27 14:35:16;;;;;;;6.90;3.97;;;;;;;;;;4918560;29;20932;-78
2023/08/27 14:37:44;;;;;;;8.40;2.63;;;;;;;;;;4918399;29;20403;-77
2023/08/27 14:40:10;;;;;;;7.93;2.77;;;;;;;;;;4918084;29;20433;-77
2023/08/27 14:42:36;;;;;;;3.67;2.53;;;;;;;;;;4918541;29;20924;-77
2023/08/27 14:45:03;;;;;;;4.40;3.17;;;;;;;;;;4918516;29;20434;-77
2023/08/27 14:47:29;;;;;;;3.70;3.00;;;;;;;;;;4918494;29;20465;-77
2023/08/27 14:49:54;;;;;;;7.53;3.23;;;;;;;;;;4918058;29;20422;-77
2023/08/27 14:52:21;;;;;;;7.20;4.13;;;;;;;;;;4918085;29;20422;-77
2023/08/27 14:54:47;;;;;;;4.47;3.60;;;;;;;;;;4918128;29;20435;-77
2023/08/27 14:57:13;;;;;;;9.90;3.87;;;;;;;;;;4918271;29;20777;-77
2023/08/27 14:59:40;;;;;;;7.03;4.70;;;;;;;;;;4917520;29;20438;-77
2023/08/27 15:02:06;;;;;;;9.00;4.63;;;;;;;;;;4918332;29;20450;-77
2023/08/27 15:04:32;;;;;;;9.20;4.53;;;;;;;;;;4918008;29;20724;-77
2023/08/27 15:06:59;;;;;;;6.87;4.80;;;;;;;;;;4918057;29;20521;-78
2023/08/27 15:09:25;;;;;;;6.90;4.70;;;;;;;;;;4917667;29;20446;-78
2023/08/27 15:11:51;;;;;;;11.90;5.17;;;;;;;;;;4917957;29;20406;-78
2023/08/27 15:14:20;;;;;;;10.43;4.97;;;;;;;;;;4917566;29;20454;-78
2023/08/27 15:16:46;;;;;;;7.90;5.13;;;;;;;;;;4918060;29;20457;-79
2023/08/27 15:19:12;;;;;;;9.80;4.80;;;;;;;;;;4916389;29;20426;-79
2023/08/27 15:21:38;;;;;;;8.90;5.27;;;;;;;;;;4919634;29;20493;-79
2023/08/27 15:24:05;;;;;;;12.00;5.97;;;;;;;;;;4918056;29;20442;-79
2023/08/27 15:26:30;;;;;;;13.37;6.10;;;;;;;;;;4918088;29;20972;-79
2023/08/27 15:28:56;;;;;;;11.13;6.00;;;;;;;;;;4918171;29;20426;-79
2023/08/27 15:31:22;;;;;;;10.43;5.70;;;;;;;;;;4916825;29;20391;-79
2023/08/27 15:33:49;;;;;;;13.53;5.80;;;;;;;;;;4917012;29;20441;-79
2023/08/27 15:36:15;;;;;;;10.33;5.03;;;;;;;;;;4917688;29;20897;-78
2023/08/27 15:38:41;;;;;;;5.60;4.40;;;;;;;;;;4916730;29;20434;-78
2023/08/27 15:41:07;;;;;;;6.20;4.87;;;;;;;;;;4917690;29;20762;-79
2023/08/27 15:43:39;;;;;;;7.87;4.73;;;;;;;;;;4917239;29;20497;-78
2023/08/27 15:46:05;;;;;;;7.40;4.00;;;;;;;;;;4917513;29;20470;-78
2023/08/27 15:48:32;;;;;;;7.30;4.40;;;;;;;;;;4917413;29;20429;-78
2023/08/27 15:50:58;;;;;;;12.50;4.43;;;;;;;;;;4917177;29;20419;-78
2023/08/27 15:53:25;;;;;;;7.23;4.97;;;;;;;;;;4916930;29;20482;-78
2023/08/27 15:55:51;;;;;;;6.80;4.57;;;;;;;;;;4917164;29;20410;-78
2023/08/27 15:58:17;;;;;;;4.43;3.60;;;;;;;;;;4916992;29;20980;-78
2023/08/27 16:00:44;;;;;;;7.90;4.83;;;;;;;;;;4917301;29;20777;-78
2023/08/27 16:03:11;;;;;;;10.10;4.83;;;;;;;;;;4916981;29;20415;-78
2023/08/27 16:05:37;;;;;;;7.47;5.17;;;;;;;;;;4916901;29;20789;-78
2023/08/27 16:08:03;;;;;;;11.87;6.60;;;;;;;;;;4916914;29;20411;-78
2023/08/27 16:10:29;;;;;;;8.93;5.40;;;;;;;;;;4916693;29;20419;-78
2023/08/27 16:12:55;;;;;;;8.60;4.90;;;;;;;;;;4916341;29;20422;-78
2023/08/27 16:15:21;;;;;;;9.10;5.97;;;;;;;;;;4916730;29;20466;-78
2023/08/27 16:17:47;;;;;;;18.10;7.83;;;;;;;;;;4916824;29;20429;-78
2023/08/27 16:20:15;;;;;;;14.03;9.10;;;;;;;;;;4917000;29;20411;-78
2023/08/27 16:22:41;;;;;;;12.60;6.70;;;;;;;;;;4916362;29;20437;-78
2023/08/27 16:25:08;;;;;;;15.27;7.00;;;;;;;;;;4916755;29;20426;-78
2023/08/27 16:27:34;;;;;;;14.87;7.60;;;;;;;;;;4916695;29;20972;-77
2023/08/27 16:30:00;;;;;;;17.70;8.40;;;;;;;;;;4916585;29;20423;-78
2023/08/27 16:32:26;;;;;;;23.40;9.30;;;;;;;;;;4916714;29;20515;-78
2023/08/27 16:34:52;;;;;;;18.33;7.93;;;;;;;;;;4916503;29;20419;-78
2023/08/27 16:37:18;;;;;;;17.40;9.17;;;;;;;;;;4930785;29;20394;-78
2023/08/27 16:39:45;;;;;;;17.83;9.67;;;;;;;;;;4939141;29;20434;-78
2023/08/27 16:42:12;;;;;;;13.43;7.03;;;;;;;;;;4937622;29;20423;-78
2023/08/27 16:44:38;;;;;;;12.37;6.80;;;;;;;;;;4929409;29;20565;-77
2023/08/27 16:47:04;;;;;;;16.40;8.53;;;;;;;;;;4925791;29;20462;-77
2023/08/27 16:49:31;;;;;;;13.30;8.03;;;;;;;;;;4919110;29;20414;-77
2023/08/27 16:51:57;;;;;;;14.20;7.10;;;;;;;;;;4938963;29;20406;-77
2023/08/27 16:54:23;;;;;;;14.77;6.90;;;;;;;;;;4938756;29;20433;-77
2023/08/27 16:56:49;;;;;;;12.17;6.47;;;;;;;;;;4939957;29;20415;-77
2023/08/27 16:59:14;;;;;;;11.17;6.70;;;;;;;;;;4939334;29;20442;-77
2023/08/27 17:01:40;;;;;;;14.70;8.20;;;;;;;;;;4940230;29;20411;-77
2023/08/27 17:04:07;;;;;;;31.93;8.63;;;;;;;;;;4936496;29;20462;-77
2023/08/27 17:06:34;;;;;;;16.17;9.17;;;;;;;;;;4919786;29;20553;-77
2023/08/27 17:09:00;;;;;;;13.50;7.80;;;;;;;;;;4919893;29;20407;-77
2023/08/27 17:11:26;;;;;;;16.43;8.20;;;;;;;;;;4917263;29;20789;-77
2023/08/27 17:13:52;;;;;;;12.83;6.40;;;;;;;;;;4952811;23;20914;-74
2023/08/27 17:16:18;;;;;;;15.83;7.60;;;;;;;;;;4994012;28;20462;-71
2023/08/27 17:18:44;;;;;;;8.90;6.47;;;;;;;;;;4994953;28;20937;-74
2023/08/27 17:21:10;;;;;;;12.80;7.50;;;;;;;;;;4998608;28;20415;-72
2023/08/27 17:23:36;;;;;;;12.17;6.60;;;;;;;;;;4996635;28;20435;-72
2023/08/27 17:26:02;;;;;;;12.17;6.67;;;;;;;;;;4977631;28;20980;-72
2023/08/27 17:28:28;;;;;;;7.43;5.73;;;;;;;;;;4976940;28;20431;-72
2023/08/27 17:30:58;;;;;;;11.10;6.03;;;;;;;;;;4971090;28;20433;-72
2023/08/27 17:33:24;;;;;;;10.10;6.40;;;;;;;;;;4954333;29;20426;-72
2023/08/27 17:35:50;;;;;;;10.83;5.20;;;;;;;;;;4952461;28;20953;-72
2023/08/27 17:38:16;;;;;;;8.17;5.50;;;;;;;;;;4966348;28;20428;-72
2023/08/27 17:40:42;;;;;;;18.60;7.43;;;;;;;;;;4972772;28;20835;-72
2023/08/27 17:43:08;;;;;;;14.67;7.50;;;;;;;;;;4973328;28;20491;-72
2023/08/27 17:45:34;;;;;;;13.50;6.60;;;;;;;;;;4973603;28;20522;-72
2023/08/27 17:48:07;;;;;;;10.70;6.27;;;;;;;;;;4973857;28;20788;-71
2023/08/27 17:50:34;;;;;;;10.23;5.43;;;;;;;;;;4973490;28;20455;-71
2023/08/27 17:53:00;;;;;;;12.67;5.20;;;;;;;;;;4973772;28;20419;-71
2023/08/27 17:55:26;;;;;;;6.53;4.50;;;;;;;;;;4973071;28;20444;-72
2023/08/27 17:57:52;;;;;;;10.80;5.90;;;;;;;;;;4972966;28;20917;-74
2023/08/27 18:00:18;;;;;;;10.40;6.23;;;;;;;;;;4972696;28;20483;-73
2023/08/27 18:02:44;;;;;;;11.13;5.70;;;;;;;;;;4973001;28;20462;-72
2023/08/27 18:05:11;;;;;;;9.60;5.47;;;;;;;;;;4967939;28;20458;-72
2023/08/27 18:07:37;;;;;;;8.10;4.50;;;;;;;;;;4969883;28;20590;-73
2023/08/27 18:10:03;;;;;;;14.07;7.30;;;;;;;;;;4969762;28;20424;-73
2023/08/27 18:12:29;;;;;;;9.10;4.43;;;;;;;;;;4958235;28;20422;-76
2023/08/27 18:14:55;;;;;;;8.20;4.87;;;;;;;;;;4971039;28;20965;-73
2023/08/27 18:17:21;;;;;;;6.37;4.00;;;;;;;;;;4973100;28;20427;-73
2023/08/27 18:19:47;;;;;;;8.30;5.10;;;;;;;;;;4972620;28;20436;-71
2023/08/27 18:22:13;;;;;;;7.10;4.90;;;;;;;;;;4972874;28;20570;-72
2023/08/27 18:24:39;;;;;;;8.63;5.33;;;;;;;;;;4971703;28;20452;-72
2023/08/27 18:27:05;;;;;;;11.63;5.27;;;;;;;;;;4970969;28;20856;-71
2023/08/27 18:29:31;;;;;;;6.93;3.90;;;;;;;;;;4972941;28;20459;-72
2023/08/27 18:31:57;;;;;;;6.83;4.60;;;;;;;;;;4973043;28;20463;-71
2023/08/27 18:34:23;;;;;;;9.87;4.57;;;;;;;;;;4972954;28;20452;-72
2023/08/27 18:36:49;;;;;;;8.57;5.63;;;;;;;;;;4976006;28;20428;-71
2023/08/27 18:39:15;;;;;;;7.67;4.10;;;;;;;;;;4975824;28;20435;-72
2023/08/27 18:41:41;;;;;;;6.53;4.13;;;;;;;;;;4973417;28;20563;-72
2023/08/27 18:44:07;;;;;;;17.40;8.80;;;;;;;;;;4973756;28;20458;-72
2023/08/27 18:46:35;;;;;;;11.77;5.33;;;;;;;;;;4967689;28;20962;-72
2023/08/27 18:49:01;;;;;;;10.70;5.00;;;;;;;;;;4956921;29;20929;-73
2023/08/27 18:51:29;;;;;;;10.70;6.07;;;;;;;;;;4970023;28;20450;-73
2023/08/27 18:53:55;;;;;;;7.00;4.53;;;;;;;;;;4976346;28;20529;-73
2023/08/27 18:56:21;;;;;;;7.47;4.73;;;;;;;;;;4968555;28;20476;-73
2023/08/27 18:58:53;;;;;;;10.40;5.50;;;;;;;;;;4979132;28;20428;-72
2023/08/27 19:01:19;;;;;;;10.70;5.80;;;;;;;;;;4965527;28;20434;-72
2023/08/27 19:03:45;;;;;;;10.57;5.50;;;;;;;;;;4975060;28;20542;-73
2023/08/27 19:06:11;;;;;;;10.27;6.00;;;;;;;;;;4975332;28;20479;-73
2023/08/27 19:08:37;;;;;;;9.63;4.60;;;;;;;;;;4975448;28;20468;-74
2023/08/27 19:11:03;;;;;;;10.10;5.07;;;;;;;;;;4975415;28;20420;-74
2023/08/27 19:13:30;;;;;;;8.70;5.23;;;;;;;;;;4975115;28;20424;-73
2023/08/27 19:15:56;;;;;;;7.23;4.43;;;;;;;;;;4972837;28;20938;-73
2023/08/27 19:18:22;;;;;;;9.00;5.37;;;;;;;;;;4974814;28;20427;-74
2023/08/27 19:20:55;;;;;;;9.63;4.87;;;;;;;;;;4975748;28;20477;-74
2023/08/27 19:23:21;;;;;;;7.83;4.50;;;;;;;;;;4975942;28;20416;-74
2023/08/27 19:25:47;;;;;;;12.13;5.10;;;;;;;;;;4975338;28;20521;-74
2023/08/27 19:28:13;;;;;;;5.30;3.80;;;;;;;;;;4975361;28;20451;-74
2023/08/27 19:30:40;;;;;;;6.97;4.10;;;;;;;;;;4973117;28;20785;-74
2023/08/27 19:33:06;;;;;;;8.10;4.80;;;;;;;;;;4970891;28;20425;-73
2023/08/27 19:35:32;;;;;;;10.50;4.83;;;;;;;;;;4964779;28;20459;-73
2023/08/27 19:37:58;;;;;;;14.30;5.17;;;;;;;;;;4974995;28;20909;-74